This is the latest recevied weather packets stored in our database for station/object W2GLD-13. If no packets are shown the sender has not sent any weather packets the latest 10 day(s).
| Time | Temp. | Humidity | Pressure | Rain* | Wind** | Luminosity | Snow |
|---|---|---|---|---|---|---|---|
| 1777590020 | 10.56° C | 45% | 1012 hPa | 0 mm | - | 81 W/m² | - |
| 1777567547 | 8.89° C | 58% | 1013.7 hPa | 0 mm | - | 118 W/m² | - |
| 1777546839 | 4.44° C | 94% | 1012.4 hPa | 0 mm | - | 2 W/m² | - |
| 1777543259 | 4.44° C | 94% | 1012.2 hPa | 0 mm | - | 0 W/m² | - |
| 1777536039 | 5° C | 94% | 1011.8 hPa | 0.76 mm | - | 0 W/m² | - |
| 1777503618 | 10° C | 86% | 1009 hPa | 0 mm | - | 28 W/m² | - |
| 1777489220 | 11.67° C | 74% | 1008.7 hPa | 0 mm | - | 109 W/m² | - |
| 1777482020 | 11.11° C | 78% | 1009.1 hPa | 0.25 mm | - | 291 W/m² | - |
| 1777478420 | 10° C | 85% | 1009.8 hPa | 0 mm | - | 228 W/m² | - |
| 1777453219 | 10° C | 84% | 1010.6 hPa | 0 mm | - | 0 W/m² | - |
| 1777446021 | 8.33° C | 91% | 1011.4 hPa | 0 mm | - | 0 W/m² | - |
| 1777417239 | 16.11° C | 65% | 1011 hPa | 0 mm | - | 192 W/m² | - |
| 1777410019 | 15.56° C | 67% | 1010.3 hPa | 0 mm | - | 570 W/m² | - |
| 1777388420 | 14.44° C | 81% | 1008.5 hPa | 0 mm | - | 133 W/m² | - |
| 1777366819 | 15° C | 93% | 1003.4 hPa | 0 mm | - | 0 W/m² | - |
| 1777363219 | 15° C | 94% | 1003.4 hPa | 0 mm | - | 0 W/m² | - |
| 1777356019 | 15.56° C | 93% | 1001.9 hPa | 2.29 mm | - | 0 W/m² | - |
| 1777338019 | 16.67° C | 78% | 1006.4 hPa | 0 mm | - | 3 W/m² | - |
| 1777334420 | 16.67° C | 75% | 1006.7 hPa | 0 mm | - | 30 W/m² | - |
| 1777327219 | 17.78° C | 75% | 1012.4 hPa | 0 mm | - | 56 W/m² | - |
| 1777320019 | 19.44° C | 61% | 1012.5 hPa | 0 mm | - | 219 W/m² | - |
| 1777312818 | 21.11° C | 50% | 1012.8 hPa | 0 mm | - | 700 W/m² | - |
| 1777309219 | 19.44° C | 51% | 1014.6 hPa | 0 mm | - | 761 W/m² | - |
* Rain latest hour (hover to see other rain measurements)
** Current wind speed in m/s (hover to see current wind gust speed)